KJMR

Mora Municipal Airport

Mora, Minnesota, USA
METAR KJMR 212316Z AUTO 00000KT 10SM SCT046 SCT055 SCT075 20/12 A3014 RMK AO2
Observed Flight Rules
Aug-21 @ 23:16 UTC (32 minutes ago) Visual Flight Rules
Visibility Clouds
10 miles
  • Scattered at 4,600' AGL
  • Scattered at 5,500' AGL
  • Scattered at 7,500' AGL
Temperatures Readings
Current 20°C / 68°F
Dewpoint 12°C / 54°F
Humidity 60%
Altimeter 30.14" Hg
Pressure 1021 hPa
Elevation 309
METAR KJMR 212316Z AUTO 00000KT 10SM SCT046 SCT055 SCT075 20/12 A3014 RMK AO2
Observed Flight Rules
Aug-21 @ 23:16 UTC
(32 minutes ago)
VFR
Clouds
  • Scattered at 4,600' AGL
  • Scattered at 5,500' AGL
  • Scattered at 7,500' AGL
Temperature Dewpoint
20°C / 68°F 12°C / 54°F
Humidity Altimeter Pressure
60% 30.14" Hg 1021 hPa